• Join FlightAware (Why Join?)
  • Login
  • US Flag 
09:39AM EST


 

Airport Tracker/Info


-or-


 

Live Flight TrackerFlight Track Log ✈ N999CB ✈ 02-Jun-2013 ✈ KRST - KGSH

Flight Track Log - Related Links

Times and Time Zones

All times are in EDT time to prevent confusion due to time zone crossing. See the N999CB flight status page for this flight to view local times or setup timezone preferences in your user account.

Time Position Orientation Groundspeed Altitude Reporting Facility
EDT Latitude Longitude Course Direction KTS MPH feet Rate Location/Type
05:17PM 43.9867 -92.4517 66° East 292 336 9,900  Level Minneapolis Center
05:18PM 43.9583 -92.3481 111° Southeast 297 342 13,400 2,460 Climbing Minneapolis Center
05:19PM 43.9247 -92.2192 110° East 337 388 15,000 2,220 Climbing Minneapolis Center
05:20PM 43.8906 -92.0808 109° East 370 426 18,100 2,760 Climbing Minneapolis Center
05:21PM 43.8544 -91.9489 111° Southeast 370 426 20,800 2,820 Climbing Minneapolis Center
05:22PM 43.8119 -91.7783 109° East 389 448 24,000 2,700 Climbing Minneapolis Center
05:23PM 43.7731 -91.6278 110° East 402 463 26,400 1,920 Climbing Minneapolis Center
05:24PM 43.7336 -91.4794 110° East 408 470 28,000 1,740 Climbing Minneapolis Center
05:25PM 43.6925 -91.3228 110° East 427 491 30,000 1,980 Climbing Minneapolis Center
05:26PM 43.6511 -91.1658 110° East 434 499 32,200 1,380 Climbing Minneapolis Center
05:27PM 43.6086 -91.0081 110° East 438 504 32,900 360 Climbing Minneapolis Center
05:28PM 43.5519 -90.8011 111° Southeast 478 550 33,000  Climbing Chicago Center
05:29PM 43.5044 -90.6239 110° East 490 564 33,000  Level Minneapolis Center
05:30PM 43.4575 -90.4506 110° East 488 562 33,000  Level Minneapolis Center
05:31PM 43.4097 -90.2786 111° Southeast 486 559 33,000  Level Minneapolis Center
05:32PM 43.3617 -90.1036 111° Southeast 482 555 33,000  Level Minneapolis Center
05:33PM 43.3053 -89.9047 111° Southeast 480 552 33,000  Level Chicago Center
05:34PM 43.2572 -89.7322 111° Southeast 485 558 33,000  Level Chicago Center
05:35PM 43.2069 -89.5606 112° Southeast 486 559 33,000  Level Chicago Center
05:36PM 43.1586 -89.3900 111° Southeast 483 556 33,000  Level Chicago Center
05:37PM 43.1106 -89.1869 108° East 482 555 33,000 -240 Level Chicago Center
05:38PM 43.0725 -89.0106 106° East 483 556 32,600 -960 Descending Chicago Center
05:39PM 43.0361 -88.8389 106° East 475 547 31,100 -1,500 Descending Chicago Center
05:40PM 42.9978 -88.6672 107° East 476 548 29,600 -1,500 Descending Chicago Center
05:41PM 42.9603 -88.4983 107° East 470 541 28,100 -1,560 Descending Chicago Center
05:42PM 42.9172 -88.2994 106° East 470 541 26,400 -1,560 Descending Chicago Center
05:43PM 42.8803 -88.1344 107° East 460 529 24,900 -1,500 Descending Chicago Center
05:44PM 42.8433 -87.9739 107° East 448 516 23,400 -1,500 Descending Chicago Center
05:46PM 42.8064 -87.8169 108° East 439 505 21,800 -1,680 Descending Chicago Center
05:47PM 42.7658 -87.6389 107° East 424 488 20,000 -1,260 Descending Chicago Center
05:48PM 42.7322 -87.4906 107° East 413 475 19,200 -480 Descending Chicago Center
05:49PM 42.7000 -87.3589 108° East 407 468 19,000 -120 Descending Chicago Center
05:50PM 42.6239 -87.2458 132° Southeast 408 470 19,000 -540 Level Chicago Center
05:51PM 42.5264 -87.1153 135° Southeast 404 465 18,000 -1,140 Descending Chicago Center
05:52PM 42.4467 -87.0100 136° Southeast 404 465 16,700 -1,320 Descending Chicago Center
05:53PM 42.3728 -86.9106 135° Southeast 391 450 15,300 -1,380 Descending Chicago Center
05:54PM 42.2978 -86.8075 135° Southeast 378 435 13,900 -1,320 Descending Chicago Center
05:55PM 42.2247 -86.7122 136° Southeast 368 423 12,600 -1,380 Descending Chicago Center
05:56PM 42.1522 -86.6153 135° Southeast 363 418 11,100 -1,260 Descending Chicago Center
05:57PM 42.0700 -86.5069 136° Southeast 346 398 10,100 -540 Descending Chicago Center
05:58PM 42.0031 -86.4181 135° Southeast 340 391 10,000 -60 Descending Chicago Center
05:59PM 41.9367 -86.3308 136° Southeast 335 386 10,000 -720 Level Chicago Center
06:00PM 41.8769 -86.2533 136° Southeast 304 350 8,500 -1,560 Descending Chicago Center
06:01PM 41.8206 -86.1778 135° Southeast 290 334 6,800 -1,140 Descending Chicago Center
06:02PM 41.7639 -86.1044 136° Southeast 285 328 6,200 -540 Descending Chicago Center
06:03PM 41.6981 -86.0181 136° Southeast 280 322 5,700 -1,140 Descending Chicago Center
06:04PM 41.6453 -85.9503 136° Southeast 270 311 3,900 -1,500 Descending Chicago Center
06:05PM 41.5944 -85.8833 135° Southeast 265 305 2,700 -720 Descending Chicago Center
06:06PM 41.5581 -85.8200 128° Southeast 234 269 2,500 -180 Descending Chicago Center
06:07PM 41.5136 -85.7972 159° South 204 235 2,400 -180 Descending Chicago Center
06:08PM 41.5033 -85.7422 104° East 178 205 2,200 -240 Descending Chicago Center